createdAt,value
2018-12-05T00:02:11.227Z,3.60
2018-12-05T00:04:42.803Z,3.50
2018-12-05T00:07:12.680Z,3.60
2018-12-05T00:09:43.290Z,3.60
2018-12-05T00:12:13.167Z,3.60
2018-12-05T00:14:42.710Z,3.60
2018-12-05T00:17:12.391Z,3.60
2018-12-05T00:19:42.272Z,3.60
2018-12-05T00:22:13.498Z,3.60
2018-12-05T00:24:42.769Z,3.60
2018-12-05T00:27:12.092Z,3.60
2018-12-05T00:29:42.155Z,3.60
2018-12-05T00:32:12.773Z,3.60
2018-12-05T00:34:43.163Z,3.60
2018-12-05T00:37:13.154Z,3.60
2018-12-05T00:39:43.281Z,3.60
2018-12-05T00:42:13.479Z,3.60
2018-12-05T00:44:43.258Z,3.60
2018-12-05T00:47:14.343Z,3.50
2018-12-05T00:49:44.307Z,3.60
2018-12-05T00:52:13.987Z,3.60
2018-12-05T00:54:47.030Z,3.60
2018-12-05T00:57:16.951Z,3.60
2018-12-05T00:59:46.887Z,3.60
2018-12-05T01:02:16.794Z,3.50
2018-12-05T01:04:46.813Z,3.60
2018-12-05T01:07:16.410Z,3.60
2018-12-05T01:09:46.481Z,3.50
2018-12-05T01:12:16.063Z,3.50
2018-12-05T01:14:45.633Z,3.50
2018-12-05T01:17:15.261Z,3.50
2018-12-05T01:19:45.887Z,3.40
2018-12-05T01:22:15.689Z,3.50
2018-12-05T01:24:46.004Z,3.40
2018-12-05T01:27:16.034Z,3.40
2018-12-05T01:29:45.293Z,3.40
2018-12-05T01:32:15.109Z,3.40
2018-12-05T01:34:45.412Z,3.30
2018-12-05T01:37:14.955Z,3.30
2018-12-05T01:39:45.000Z,3.20
2018-12-05T01:42:15.639Z,3.20
2018-12-05T01:44:46.723Z,3.10
2018-12-05T01:47:16.992Z,3.20
2018-12-05T01:49:47.304Z,3.10
2018-12-05T01:52:17.162Z,3.10
2018-12-05T01:54:48.071Z,3.00
2018-12-05T01:57:18.863Z,3.00
2018-12-05T01:59:48.194Z,3.00
2018-12-05T02:02:18.023Z,3.00
2018-12-05T02:04:49.075Z,2.90
2018-12-05T02:07:19.031Z,2.90
2018-12-05T02:09:49.007Z,2.90
2018-12-05T02:12:19.300Z,2.80
2018-12-05T02:14:49.267Z,2.80
2018-12-05T02:17:18.491Z,2.80
2018-12-05T02:19:48.616Z,2.80
2018-12-05T02:22:19.036Z,2.70
2018-12-05T02:24:48.215Z,2.70
2018-12-05T02:27:17.824Z,2.70
2018-12-05T02:29:52.144Z,2.70
2018-12-05T02:32:22.084Z,2.70
2018-12-05T02:34:51.555Z,2.70
2018-12-05T02:37:21.582Z,2.70
2018-12-05T02:39:51.099Z,2.70
2018-12-05T02:42:21.443Z,2.60
2018-12-05T02:44:51.272Z,2.60
2018-12-05T02:47:21.628Z,2.60
2018-12-05T02:49:51.220Z,2.60
2018-12-05T02:52:20.328Z,2.60
2018-12-05T02:54:50.471Z,2.60
2018-12-05T02:57:20.480Z,2.60
2018-12-05T02:59:50.927Z,2.60
2018-12-05T03:02:21.251Z,2.60
2018-12-05T03:04:51.779Z,2.60
2018-12-05T03:07:22.087Z,2.60
2018-12-05T03:09:51.595Z,2.50
2018-12-05T03:12:21.236Z,2.60
2018-12-05T03:14:50.923Z,2.50
2018-12-05T03:17:21.299Z,2.60
2018-12-05T03:19:51.360Z,2.60
2018-12-05T03:22:21.319Z,2.50
2018-12-05T03:24:51.298Z,2.50
2018-12-05T03:27:21.208Z,2.50
2018-12-05T03:29:51.094Z,2.50
2018-12-05T03:32:20.805Z,2.50
2018-12-05T03:34:50.443Z,2.50
2018-12-05T03:37:19.888Z,2.50
2018-12-05T03:39:49.527Z,2.50
2018-12-05T03:42:19.671Z,2.50
2018-12-05T03:44:49.562Z,2.50
2018-12-05T03:47:19.147Z,2.50
2018-12-05T03:49:53.767Z,2.40
2018-12-05T03:52:23.224Z,2.40
2018-12-05T03:54:53.138Z,2.40
2018-12-05T03:57:23.118Z,2.40
2018-12-05T03:59:52.381Z,2.40
2018-12-05T04:02:22.319Z,2.40
2018-12-05T04:04:52.243Z,2.40
2018-12-05T04:07:21.958Z,2.40
2018-12-05T04:09:51.911Z,2.40
2018-12-05T04:12:21.604Z,2.40
2018-12-05T04:14:51.803Z,2.40
2018-12-05T04:17:21.131Z,2.40
2018-12-05T04:19:51.061Z,2.40
2018-12-05T04:22:21.048Z,2.40
2018-12-05T04:24:50.607Z,2.40
2018-12-05T04:27:19.956Z,2.40
2018-12-05T04:29:49.856Z,2.40
2018-12-05T04:32:19.775Z,2.40
2018-12-05T04:34:49.638Z,2.40
2018-12-05T04:37:19.568Z,2.40
2018-12-05T04:39:49.458Z,2.40
2018-12-05T04:42:19.587Z,2.40
2018-12-05T04:44:49.217Z,2.40
2018-12-05T04:47:18.824Z,2.30
2018-12-05T04:49:48.463Z,2.40
2018-12-05T04:52:17.850Z,2.40
2018-12-05T04:54:47.554Z,2.30
2018-12-05T04:57:17.768Z,2.30
2018-12-05T04:59:48.018Z,2.30
2018-12-05T05:02:17.919Z,2.40
2018-12-05T05:04:47.972Z,2.30
2018-12-05T05:07:17.316Z,2.30
2018-12-05T05:09:47.455Z,2.30
2018-12-05T05:12:16.935Z,2.30
2018-12-05T05:14:46.646Z,2.30
2018-12-05T05:17:16.274Z,2.30
2018-12-05T05:19:45.947Z,2.30
2018-12-05T05:22:16.812Z,2.30
2018-12-05T05:24:46.335Z,2.30
2018-12-05T05:27:16.163Z,2.30
2018-12-05T05:29:46.251Z,2.30
2018-12-05T05:32:15.935Z,2.20
2018-12-05T05:34:45.883Z,2.20
2018-12-05T05:37:15.606Z,2.30
2018-12-05T05:39:45.171Z,2.30
2018-12-05T05:42:15.211Z,2.30
2018-12-05T05:44:45.185Z,2.30
2018-12-05T05:47:14.623Z,2.30
2018-12-05T05:49:44.271Z,2.30
2018-12-05T05:52:14.197Z,2.30
2018-12-05T05:54:43.868Z,2.30
2018-12-05T05:57:13.517Z,2.30
2018-12-05T05:59:43.069Z,2.30
2018-12-05T06:02:13.383Z,2.30
2018-12-05T06:04:43.341Z,2.30
2018-12-05T06:07:12.935Z,2.30
2018-12-05T06:09:42.937Z,2.30
2018-12-05T06:12:12.664Z,2.30
2018-12-05T06:14:42.523Z,2.30
2018-12-05T06:17:12.345Z,2.30
2018-12-05T06:19:42.267Z,2.30
2018-12-05T06:22:13.195Z,2.30
2018-12-05T06:24:43.135Z,2.30
2018-12-05T06:27:12.719Z,2.30
2018-12-05T06:29:42.814Z,2.30
2018-12-05T06:32:11.931Z,2.40
2018-12-05T06:34:41.615Z,2.40
2018-12-05T06:37:11.835Z,2.30
2018-12-05T06:39:41.795Z,2.30
2018-12-05T06:42:11.740Z,2.30
2018-12-05T06:44:41.727Z,2.30
2018-12-05T06:47:12.047Z,2.30
2018-12-05T06:49:41.954Z,2.30
2018-12-05T06:52:12.081Z,2.30
2018-12-05T06:54:42.005Z,2.30
2018-12-05T06:57:11.931Z,2.30
2018-12-05T06:59:41.807Z,2.30
2018-12-05T07:02:12.228Z,2.30
2018-12-05T07:04:42.090Z,2.30
2018-12-05T07:07:11.563Z,2.30
2018-12-05T07:09:42.020Z,2.30
2018-12-05T07:12:13.611Z,2.30
2018-12-05T07:14:43.243Z,2.20
2018-12-05T07:17:12.848Z,2.30
2018-12-05T07:19:42.756Z,2.30
2018-12-05T07:22:13.066Z,2.20
2018-12-05T07:24:44.180Z,2.20
2018-12-05T07:27:14.103Z,2.30
2018-12-05T07:29:44.235Z,2.20
2018-12-05T07:32:14.332Z,2.20
2018-12-05T07:34:43.884Z,2.30
2018-12-05T07:37:13.855Z,2.30
2018-12-05T07:39:44.026Z,2.30
2018-12-05T07:42:14.003Z,2.30
2018-12-05T07:44:43.956Z,2.30
2018-12-05T07:47:13.959Z,2.30
2018-12-05T07:49:43.779Z,2.30
2018-12-05T07:52:13.972Z,2.30
2018-12-05T07:54:43.624Z,2.40
2018-12-05T07:57:13.511Z,2.40
2018-12-05T07:59:43.599Z,2.40
2018-12-05T08:02:13.015Z,2.40
2018-12-05T08:04:43.063Z,2.40
2018-12-05T08:07:12.964Z,2.40
2018-12-05T08:09:42.667Z,2.50
2018-12-05T08:12:12.248Z,2.60
2018-12-05T08:14:42.312Z,2.60
2018-12-05T08:17:12.239Z,2.60
2018-12-05T08:19:41.887Z,2.60
2018-12-05T08:22:11.727Z,2.70
2018-12-05T08:24:41.643Z,2.80
2018-12-05T08:27:11.343Z,2.90
2018-12-05T08:29:41.157Z,2.90
2018-12-05T08:32:10.428Z,2.90
2018-12-05T08:34:40.086Z,2.90
2018-12-05T08:37:10.184Z,2.90
2018-12-05T08:39:39.729Z,2.90
2018-12-05T08:42:09.668Z,2.90
2018-12-05T08:44:39.970Z,3.00
2018-12-05T08:47:09.959Z,2.90
2018-12-05T08:49:39.972Z,2.90
2018-12-05T08:52:10.087Z,2.90
2018-12-05T08:54:40.099Z,3.00
2018-12-05T08:57:10.335Z,3.00
2018-12-05T08:59:40.636Z,3.00
2018-12-05T09:02:10.555Z,2.90
2018-12-05T09:04:40.460Z,2.90
2018-12-05T09:07:10.037Z,3.10
2018-12-05T09:09:39.654Z,3.10
2018-12-05T09:12:09.594Z,3.10
2018-12-05T09:14:39.919Z,3.10
2018-12-05T09:17:09.932Z,3.10
2018-12-05T09:19:39.247Z,3.20
2018-12-05T09:22:08.717Z,3.30
2018-12-05T09:24:38.043Z,3.40
2018-12-05T09:27:07.135Z,3.50
2018-12-05T09:29:37.027Z,3.50
2018-12-05T09:32:06.617Z,3.40
2018-12-05T09:34:36.631Z,3.50
2018-12-05T09:37:06.299Z,3.70
2018-12-05T09:39:36.012Z,3.70
2018-12-05T09:42:05.883Z,3.80
2018-12-05T09:44:35.803Z,3.80
2018-12-05T09:47:06.003Z,4.00
2018-12-05T09:49:35.699Z,4.10
2018-12-05T09:52:09.281Z,4.30
2018-12-05T09:54:38.952Z,4.40
2018-12-05T09:57:08.831Z,4.60
2018-12-05T09:59:38.773Z,4.80
2018-12-05T10:02:08.792Z,4.90
2018-12-05T10:04:38.487Z,5.00
2018-12-05T10:07:08.531Z,5.10
2018-12-05T10:09:38.399Z,5.30
2018-12-05T10:12:08.027Z,5.20
2018-12-05T10:14:37.831Z,5.30
2018-12-05T10:17:07.443Z,5.60
2018-12-05T10:19:37.591Z,5.70
2018-12-05T10:22:07.548Z,5.40
2018-12-05T10:24:37.503Z,5.70
2018-12-05T10:27:06.824Z,6.20
2018-12-05T10:29:36.671Z,6.00
2018-12-05T10:32:06.358Z,6.20
2018-12-05T10:34:35.949Z,6.30
2018-12-05T10:37:05.870Z,6.50
2018-12-05T10:39:35.947Z,6.50
2018-12-05T10:42:05.899Z,6.70
2018-12-05T10:44:35.431Z,7.20
2018-12-05T10:47:04.746Z,7.20
2018-12-05T10:49:34.715Z,7.50
2018-12-05T10:52:04.716Z,6.80
2018-12-05T10:54:34.723Z,6.30
2018-12-05T10:57:04.938Z,6.10
2018-12-05T10:59:34.867Z,6.30
2018-12-05T11:02:09.599Z,5.80
2018-12-05T11:04:44.295Z,6.20
2018-12-05T11:07:19.027Z,6.40
2018-12-05T11:09:53.263Z,6.30
2018-12-05T11:12:27.660Z,5.80
2018-12-05T11:15:02.645Z,5.70
2018-12-05T11:17:37.822Z,6.20
2018-12-05T11:20:12.765Z,6.70
2018-12-05T11:22:47.331Z,7.00
2018-12-05T11:25:19.318Z,7.30
2018-12-05T11:27:49.312Z,7.70
2018-12-05T11:30:18.976Z,7.50
2018-12-05T11:32:48.664Z,7.80
2018-12-05T11:35:18.559Z,7.90
2018-12-05T11:37:48.723Z,7.60
2018-12-05T11:40:18.784Z,8.20
2018-12-05T11:42:48.165Z,8.20
2018-12-05T11:45:18.347Z,7.60
2018-12-05T11:47:48.675Z,7.40
2018-12-05T11:50:18.579Z,7.80
2018-12-05T11:52:48.908Z,7.50
2018-12-05T11:55:18.435Z,7.70
2018-12-05T11:57:48.715Z,8.30
2018-12-05T12:00:18.279Z,7.60
2018-12-05T12:02:48.471Z,7.50
2018-12-05T12:05:18.667Z,7.40
2018-12-05T12:07:48.180Z,7.20
2018-12-05T12:10:20.207Z,7.10
2018-12-05T12:12:54.915Z,7.40
2018-12-05T12:15:25.007Z,7.20
2018-12-05T12:17:54.679Z,7.20
2018-12-05T12:20:24.775Z,7.00
2018-12-05T12:22:54.915Z,7.30
2018-12-05T12:25:25.064Z,6.10
2018-12-05T12:27:54.831Z,5.30
2018-12-05T12:30:24.571Z,4.60
2018-12-05T12:32:54.411Z,4.30
2018-12-05T12:35:24.127Z,4.10
2018-12-05T12:37:53.487Z,4.00
2018-12-05T12:40:23.311Z,3.90
2018-12-05T12:42:53.415Z,3.90
2018-12-05T12:45:22.911Z,3.80
2018-12-05T12:47:52.571Z,3.80
2018-12-05T12:50:22.563Z,3.70
2018-12-05T12:52:52.479Z,3.60
2018-12-05T12:55:22.357Z,3.60
2018-12-05T12:57:52.253Z,3.60
2018-12-05T13:00:22.654Z,3.50
2018-12-05T13:02:52.585Z,3.50
2018-12-05T13:05:22.499Z,3.40
2018-12-05T13:07:52.179Z,3.40
2018-12-05T13:10:21.934Z,3.30
2018-12-05T13:12:54.600Z,3.30
2018-12-05T13:15:24.347Z,3.40
2018-12-05T13:17:54.187Z,3.40
2018-12-05T13:20:24.052Z,3.30
2018-12-05T13:22:53.684Z,3.30
2018-12-05T13:25:23.823Z,3.20
2018-12-05T13:27:54.035Z,3.30
2018-12-05T13:30:23.700Z,3.30
2018-12-05T13:32:53.251Z,3.20
2018-12-05T13:35:22.640Z,3.20
2018-12-05T13:37:52.663Z,3.20
2018-12-05T13:40:22.436Z,3.20
2018-12-05T13:42:52.695Z,3.20
2018-12-05T13:45:22.199Z,3.20
2018-12-05T13:47:51.811Z,3.10
2018-12-05T13:50:21.407Z,3.10
2018-12-05T13:52:51.328Z,3.00
2018-12-05T13:55:21.341Z,3.00
2018-12-05T13:57:51.046Z,3.00
2018-12-05T14:00:21.056Z,2.90
2018-12-05T14:02:50.614Z,2.90
2018-12-05T14:05:20.907Z,2.90
2018-12-05T14:07:49.955Z,2.90
2018-12-05T14:10:19.416Z,2.80
2018-12-05T14:12:49.907Z,2.90
2018-12-05T14:15:20.393Z,2.90
2018-12-05T14:17:50.763Z,2.90
2018-12-05T14:20:20.745Z,2.90
2018-12-05T14:22:50.560Z,2.90
2018-12-05T14:25:20.506Z,2.80
2018-12-05T14:27:50.743Z,2.80
2018-12-05T14:30:20.735Z,2.80
2018-12-05T14:32:50.727Z,2.80
2018-12-05T14:35:20.371Z,2.80
2018-12-05T14:37:50.375Z,2.80
2018-12-05T14:40:20.619Z,2.80
2018-12-05T14:42:51.188Z,2.80
2018-12-05T14:45:21.038Z,2.80
2018-12-05T14:47:51.246Z,2.90
2018-12-05T14:50:21.107Z,2.90
2018-12-05T14:52:50.566Z,2.90
2018-12-05T14:55:20.401Z,2.90
2018-12-05T14:57:50.439Z,2.90
2018-12-05T15:00:20.307Z,2.80
2018-12-05T15:02:50.419Z,2.80
2018-12-05T15:05:19.811Z,2.80
2018-12-05T15:07:49.879Z,2.80
2018-12-05T15:10:19.580Z,2.80
2018-12-05T15:12:51.215Z,2.80
2018-12-05T15:15:21.381Z,2.80
2018-12-05T15:17:51.639Z,2.80
2018-12-05T15:20:21.379Z,2.80
2018-12-05T15:22:51.596Z,2.80
2018-12-05T15:25:21.907Z,2.90
2018-12-05T15:27:51.895Z,2.90
2018-12-05T15:30:21.951Z,2.80
2018-12-05T15:32:51.767Z,2.80
2018-12-05T15:35:21.740Z,2.80
2018-12-05T15:37:51.614Z,2.80
2018-12-05T15:40:21.802Z,2.80
2018-12-05T15:42:52.164Z,2.80
2018-12-05T15:45:21.679Z,2.80
2018-12-05T15:47:51.752Z,2.80
2018-12-05T15:50:21.746Z,2.80
2018-12-05T15:52:51.967Z,2.80
2018-12-05T15:55:21.516Z,2.90
2018-12-05T15:57:51.493Z,2.80
2018-12-05T16:00:21.003Z,2.90
2018-12-05T16:02:50.640Z,2.90
2018-12-05T16:05:20.639Z,2.80
2018-12-05T16:07:50.619Z,2.80
2018-12-05T16:10:20.664Z,2.80
2018-12-05T16:12:50.640Z,2.80
2018-12-05T16:15:20.918Z,2.70
2018-12-05T16:17:51.095Z,2.70
2018-12-05T16:20:20.526Z,2.60
2018-12-05T16:22:50.109Z,2.70
2018-12-05T16:25:20.047Z,2.70
2018-12-05T16:27:49.963Z,2.60
2018-12-05T16:30:19.859Z,2.60
2018-12-05T16:32:49.763Z,2.60
2018-12-05T16:35:19.367Z,2.50
2018-12-05T16:37:49.529Z,2.60
2018-12-05T16:40:19.535Z,2.50
2018-12-05T16:42:49.166Z,2.50
2018-12-05T16:45:18.705Z,2.60
2018-12-05T16:47:48.655Z,2.50
2018-12-05T16:50:18.467Z,2.50
2018-12-05T16:52:48.215Z,2.50
2018-12-05T16:55:18.366Z,2.50
2018-12-05T16:57:48.564Z,2.50
2018-12-05T17:00:18.307Z,2.40
2018-12-05T17:02:48.479Z,2.50
2018-12-05T17:05:18.128Z,2.50
2018-12-05T17:07:48.449Z,2.50
2018-12-05T17:10:18.329Z,2.40
2018-12-05T17:12:48.483Z,2.50
2018-12-05T17:15:18.848Z,2.40
2018-12-05T17:17:48.109Z,2.40
2018-12-05T17:20:17.882Z,2.50
2018-12-05T17:22:47.842Z,2.60
2018-12-05T17:25:17.988Z,2.60
2018-12-05T17:27:48.028Z,2.70
2018-12-05T17:30:17.678Z,2.60
2018-12-05T17:32:47.343Z,2.60
2018-12-05T17:35:16.868Z,2.60
2018-12-05T17:37:46.655Z,2.60
2018-12-05T17:40:16.579Z,2.60
2018-12-05T17:42:46.327Z,2.60
2018-12-05T17:45:16.366Z,2.60
2018-12-05T17:47:46.107Z,2.60
2018-12-05T17:50:15.807Z,2.60
2018-12-05T17:52:45.815Z,2.60
2018-12-05T17:55:15.927Z,2.50
2018-12-05T17:57:45.780Z,2.50
2018-12-05T18:00:15.650Z,2.50
2018-12-05T18:02:45.673Z,2.50
2018-12-05T18:05:15.845Z,2.50
2018-12-05T18:07:46.088Z,2.50
2018-12-05T18:10:16.313Z,2.50
2018-12-05T18:12:46.395Z,2.50
2018-12-05T18:15:16.573Z,2.40
2018-12-05T18:17:46.171Z,2.40
2018-12-05T18:20:15.927Z,2.50
2018-12-05T18:22:46.180Z,2.50
2018-12-05T18:25:16.424Z,2.40
2018-12-05T18:27:46.391Z,2.50
2018-12-05T18:30:16.466Z,2.50
2018-12-05T18:32:46.098Z,2.40
2018-12-05T18:35:16.299Z,2.50
2018-12-05T18:37:47.312Z,2.50
2018-12-05T18:40:17.343Z,2.50
2018-12-05T18:42:48.681Z,2.50
2018-12-05T18:45:20.535Z,2.50
2018-12-05T18:47:51.381Z,2.40
2018-12-05T18:50:24.792Z,2.40
2018-12-05T18:52:55.005Z,2.50
2018-12-05T18:55:25.169Z,2.60
2018-12-05T18:57:55.319Z,2.70
2018-12-05T19:00:25.343Z,2.60
2018-12-05T19:02:54.855Z,2.60
2018-12-05T19:05:25.309Z,2.60
2018-12-05T19:07:55.320Z,2.60
2018-12-05T19:10:25.256Z,2.70
2018-12-05T19:12:55.439Z,2.80
2018-12-05T19:15:25.414Z,2.80
2018-12-05T19:17:55.451Z,2.70
2018-12-05T19:20:25.577Z,2.70
2018-12-05T19:22:55.899Z,2.70
2018-12-05T19:25:25.851Z,2.70
2018-12-05T19:27:55.528Z,2.80
2018-12-05T19:30:25.960Z,2.90
2018-12-05T19:32:55.685Z,2.90
2018-12-05T19:35:25.236Z,2.80
2018-12-05T19:37:55.283Z,2.90
2018-12-05T19:40:25.568Z,2.80
2018-12-05T19:42:55.582Z,2.80
2018-12-05T19:45:25.764Z,2.90
2018-12-05T19:47:55.675Z,2.90
2018-12-05T19:50:25.615Z,2.80
2018-12-05T19:52:55.696Z,2.80
2018-12-05T19:55:25.687Z,2.90
2018-12-05T19:57:55.607Z,2.90
2018-12-05T20:00:25.028Z,2.90
2018-12-05T20:02:54.564Z,2.90
2018-12-05T20:05:24.295Z,2.80
2018-12-05T20:07:54.367Z,2.90
2018-12-05T20:10:24.380Z,2.90
2018-12-05T20:12:54.300Z,2.90
2018-12-05T20:15:24.563Z,2.80
2018-12-05T20:17:54.631Z,2.70
2018-12-05T20:20:24.584Z,2.60
2018-12-05T20:22:54.651Z,2.50
2018-12-05T20:25:24.977Z,2.50
2018-12-05T20:27:54.572Z,2.50
2018-12-05T20:30:24.715Z,2.50
2018-12-05T20:32:54.718Z,2.50
2018-12-05T20:35:23.783Z,2.50
2018-12-05T20:37:53.924Z,2.50
2018-12-05T20:40:23.581Z,2.70
2018-12-05T20:42:54.005Z,2.70
2018-12-05T20:45:24.287Z,2.60
2018-12-05T20:47:54.216Z,2.60
2018-12-05T20:50:23.975Z,2.70
2018-12-05T20:52:54.251Z,2.70
2018-12-05T20:55:24.045Z,2.60
2018-12-05T20:57:53.819Z,2.60
2018-12-05T21:00:23.965Z,2.50
2018-12-05T21:02:53.443Z,2.50
2018-12-05T21:05:23.286Z,2.40
2018-12-05T21:07:53.297Z,2.40
2018-12-05T21:10:57.492Z,2.40
2018-12-05T21:13:27.147Z,2.30
2018-12-05T21:15:57.443Z,2.30
2018-12-05T21:18:27.568Z,2.30
2018-12-05T21:20:57.298Z,2.40
2018-12-05T21:23:27.055Z,2.40
2018-12-05T21:25:57.399Z,2.40
2018-12-05T21:28:27.129Z,2.40
2018-12-05T21:30:56.647Z,2.60
2018-12-05T21:33:26.787Z,2.60
2018-12-05T21:35:56.087Z,2.60
2018-12-05T21:38:25.835Z,2.60
2018-12-05T21:40:55.966Z,2.60
2018-12-05T21:43:25.635Z,2.60
2018-12-05T21:45:55.192Z,2.70
2018-12-05T21:48:25.355Z,2.70
2018-12-05T21:50:55.611Z,2.70
2018-12-05T21:53:25.277Z,2.80
2018-12-05T21:55:55.444Z,2.80
2018-12-05T21:58:25.471Z,2.70
2018-12-05T22:00:55.511Z,2.60
2018-12-05T22:03:25.424Z,2.60
2018-12-05T22:05:55.697Z,2.80
2018-12-05T22:08:25.549Z,2.80
2018-12-05T22:10:55.354Z,2.90
2018-12-05T22:13:25.051Z,2.90
2018-12-05T22:15:55.359Z,2.90
2018-12-05T22:18:25.288Z,3.00
2018-12-05T22:20:55.603Z,2.90
2018-12-05T22:23:25.819Z,2.90
2018-12-05T22:25:56.029Z,2.90
2018-12-05T22:28:26.468Z,3.00
2018-12-05T22:30:56.491Z,3.00
2018-12-05T22:33:26.619Z,3.00
2018-12-05T22:35:56.521Z,3.00
2018-12-05T22:38:26.654Z,3.00
2018-12-05T22:40:56.944Z,3.00
2018-12-05T22:43:26.635Z,3.00
2018-12-05T22:45:56.902Z,2.90
2018-12-05T22:48:26.719Z,2.90
2018-12-05T22:50:56.071Z,2.90
2018-12-05T22:53:25.975Z,2.90
2018-12-05T22:55:56.039Z,2.90
2018-12-05T22:58:26.121Z,2.80
2018-12-05T23:00:58.616Z,2.80
2018-12-05T23:03:28.447Z,2.80
2018-12-05T23:05:57.855Z,2.70
2018-12-05T23:08:27.756Z,2.70
2018-12-05T23:10:57.365Z,2.70
2018-12-05T23:13:26.839Z,2.60
2018-12-05T23:15:56.509Z,2.60
2018-12-05T23:18:27.328Z,2.60
2018-12-05T23:20:56.920Z,2.60
2018-12-05T23:23:27.238Z,2.50
2018-12-05T23:25:57.054Z,2.40
2018-12-05T23:28:26.232Z,2.40
2018-12-05T23:30:56.163Z,2.40
2018-12-05T23:33:26.064Z,2.30
2018-12-05T23:35:55.821Z,2.40
2018-12-05T23:38:25.749Z,2.40
2018-12-05T23:40:56.058Z,2.40
2018-12-05T23:43:26.131Z,2.50
2018-12-05T23:45:55.944Z,2.60
2018-12-05T23:48:25.419Z,2.60
2018-12-05T23:50:55.055Z,2.70
2018-12-05T23:53:25.376Z,2.70
2018-12-05T23:55:54.683Z,2.80
2018-12-05T23:58:23.806Z,2.80
